sensor_id;sensor_type;location;lat;lon;timestamp;temperature;humidity
44729;DHT22;30457;53.590;9.922;2024-01-16T00:03:06;4.50;61.40
44729;DHT22;30457;53.590;9.922;2024-01-16T00:07:32;4.40;61.50
44729;DHT22;30457;53.590;9.922;2024-01-16T00:12:00;4.40;61.60
44729;DHT22;30457;53.590;9.922;2024-01-16T00:16:25;4.40;61.80
44729;DHT22;30457;53.590;9.922;2024-01-16T00:20:51;4.40;61.60
44729;DHT22;30457;53.590;9.922;2024-01-16T00:25:17;4.30;61.50
44729;DHT22;30457;53.590;9.922;2024-01-16T00:29:45;4.30;61.80
44729;DHT22;30457;53.590;9.922;2024-01-16T00:34:10;4.20;61.80
44729;DHT22;30457;53.590;9.922;2024-01-16T00:38:36;4.20;61.80
44729;DHT22;30457;53.590;9.922;2024-01-16T00:43:02;4.20;62.00
44729;DHT22;30457;53.590;9.922;2024-01-16T00:47:27;4.20;62.00
44729;DHT22;30457;53.590;9.922;2024-01-16T00:51:53;4.20;61.80
44729;DHT22;30457;53.590;9.922;2024-01-16T00:56:18;4.20;61.80
44729;DHT22;30457;53.590;9.922;2024-01-16T01:00:44;4.20;61.70
44729;DHT22;30457;53.590;9.922;2024-01-16T01:05:10;4.20;61.80
44729;DHT22;30457;53.590;9.922;2024-01-16T01:09:36;4.20;61.80
44729;DHT22;30457;53.590;9.922;2024-01-16T01:14:01;4.20;61.80
44729;DHT22;30457;53.590;9.922;2024-01-16T01:18:27;4.20;61.70
44729;DHT22;30457;53.590;9.922;2024-01-16T01:22:52;4.20;61.70
44729;DHT22;30457;53.590;9.922;2024-01-16T01:27:18;4.20;61.80
44729;DHT22;30457;53.590;9.922;2024-01-16T01:31:47;4.20;61.90
44729;DHT22;30457;53.590;9.922;2024-01-16T01:36:15;4.20;61.60
44729;DHT22;30457;53.590;9.922;2024-01-16T01:40:40;4.20;61.40
44729;DHT22;30457;53.590;9.922;2024-01-16T01:45:09;4.20;61.60
44729;DHT22;30457;53.590;9.922;2024-01-16T01:49:36;4.20;61.50
44729;DHT22;30457;53.590;9.922;2024-01-16T01:54:02;4.20;61.50
44729;DHT22;30457;53.590;9.922;2024-01-16T01:58:27;4.20;61.80
44729;DHT22;30457;53.590;9.922;2024-01-16T02:02:54;4.20;61.70
44729;DHT22;30457;53.590;9.922;2024-01-16T02:07:19;4.20;61.90
44729;DHT22;30457;53.590;9.922;2024-01-16T02:11:45;4.20;61.90
44729;DHT22;30457;53.590;9.922;2024-01-16T02:16:20;4.20;61.70
44729;DHT22;30457;53.590;9.922;2024-01-16T02:20:47;4.10;61.70
44729;DHT22;30457;53.590;9.922;2024-01-16T02:25:12;4.10;61.80
44729;DHT22;30457;53.590;9.922;2024-01-16T02:29:42;4.10;61.70
44729;DHT22;30457;53.590;9.922;2024-01-16T02:34:10;4.10;61.60
44729;DHT22;30457;53.590;9.922;2024-01-16T02:38:36;4.00;61.50
44729;DHT22;30457;53.590;9.922;2024-01-16T02:43:01;4.00;61.70
44729;DHT22;30457;53.590;9.922;2024-01-16T02:47:27;4.00;61.80
44729;DHT22;30457;53.590;9.922;2024-01-16T02:51:53;3.90;61.90
44729;DHT22;30457;53.590;9.922;2024-01-16T02:56:19;3.90;62.00
44729;DHT22;30457;53.590;9.922;2024-01-16T03:00:45;3.90;62.00
44729;DHT22;30457;53.590;9.922;2024-01-16T03:05:10;3.90;62.00
44729;DHT22;30457;53.590;9.922;2024-01-16T03:09:36;3.90;62.20
44729;DHT22;30457;53.590;9.922;2024-01-16T03:14:02;3.90;62.40
44729;DHT22;30457;53.590;9.922;2024-01-16T03:18:27;3.80;62.30
44729;DHT22;30457;53.590;9.922;2024-01-16T03:22:54;3.80;62.30
44729;DHT22;30457;53.590;9.922;2024-01-16T03:27:20;3.80;62.30
44729;DHT22;30457;53.590;9.922;2024-01-16T03:31:45;3.80;62.60
44729;DHT22;30457;53.590;9.922;2024-01-16T03:36:11;3.80;62.80
44729;DHT22;30457;53.590;9.922;2024-01-16T03:40:38;3.80;62.80
44729;DHT22;30457;53.590;9.922;2024-01-16T03:45:05;3.80;62.90
44729;DHT22;30457;53.590;9.922;2024-01-16T03:49:31;3.80;63.00
44729;DHT22;30457;53.590;9.922;2024-01-16T03:53:57;3.80;63.00
44729;DHT22;30457;53.590;9.922;2024-01-16T03:58:23;3.80;63.00
44729;DHT22;30457;53.590;9.922;2024-01-16T04:02:48;3.80;62.90
44729;DHT22;30457;53.590;9.922;2024-01-16T04:07:14;3.80;62.80
44729;DHT22;30457;53.590;9.922;2024-01-16T04:11:39;3.80;62.60
44729;DHT22;30457;53.590;9.922;2024-01-16T04:16:05;3.80;62.50
44729;DHT22;30457;53.590;9.922;2024-01-16T04:20:31;3.80;62.50
44729;DHT22;30457;53.590;9.922;2024-01-16T04:24:56;3.80;62.50
44729;DHT22;30457;53.590;9.922;2024-01-16T04:29:22;3.80;62.40
44729;DHT22;30457;53.590;9.922;2024-01-16T04:33:48;3.80;62.40
44729;DHT22;30457;53.590;9.922;2024-01-16T04:38:13;3.70;62.40
44729;DHT22;30457;53.590;9.922;2024-01-16T04:42:39;3.70;62.40
44729;DHT22;30457;53.590;9.922;2024-01-16T04:47:05;3.60;62.50
44729;DHT22;30457;53.590;9.922;2024-01-16T04:51:30;3.60;62.70
44729;DHT22;30457;53.590;9.922;2024-01-16T04:55:56;3.60;62.80
44729;DHT22;30457;53.590;9.922;2024-01-16T05:00:23;3.50;62.80
44729;DHT22;30457;53.590;9.922;2024-01-16T05:04:48;3.50;62.80
44729;DHT22;30457;53.590;9.922;2024-01-16T05:09:17;3.50;63.00
44729;DHT22;30457;53.590;9.922;2024-01-16T05:13:43;3.40;63.10
44729;DHT22;30457;53.590;9.922;2024-01-16T05:18:08;3.40;63.40
44729;DHT22;30457;53.590;9.922;2024-01-16T05:22:34;3.40;63.70
44729;DHT22;30457;53.590;9.922;2024-01-16T05:27:01;3.40;64.00
44729;DHT22;30457;53.590;9.922;2024-01-16T05:31:28;3.40;64.20
44729;DHT22;30457;53.590;9.922;2024-01-16T05:35:53;3.50;64.50
44729;DHT22;30457;53.590;9.922;2024-01-16T05:40:19;3.50;64.60
44729;DHT22;30457;53.590;9.922;2024-01-16T05:44:44;3.50;64.70
44729;DHT22;30457;53.590;9.922;2024-01-16T05:49:10;3.50;64.80
44729;DHT22;30457;53.590;9.922;2024-01-16T05:53:36;3.50;64.80
44729;DHT22;30457;53.590;9.922;2024-01-16T05:58:02;3.60;64.80
44729;DHT22;30457;53.590;9.922;2024-01-16T06:02:28;3.60;64.80
44729;DHT22;30457;53.590;9.922;2024-01-16T06:06:55;3.60;64.80
44729;DHT22;30457;53.590;9.922;2024-01-16T06:11:30;3.60;64.70
44729;DHT22;30457;53.590;9.922;2024-01-16T06:15:55;3.60;64.80
44729;DHT22;30457;53.590;9.922;2024-01-16T06:20:21;3.60;64.70
44729;DHT22;30457;53.590;9.922;2024-01-16T06:24:49;3.60;64.70
44729;DHT22;30457;53.590;9.922;2024-01-16T06:29:15;3.70;64.80
44729;DHT22;30457;53.590;9.922;2024-01-16T06:33:41;3.70;64.80
44729;DHT22;30457;53.590;9.922;2024-01-16T06:38:06;3.70;64.80
44729;DHT22;30457;53.590;9.922;2024-01-16T06:42:32;3.70;64.80
44729;DHT22;30457;53.590;9.922;2024-01-16T06:46:58;3.70;64.90
44729;DHT22;30457;53.590;9.922;2024-01-16T06:51:24;3.70;65.00
44729;DHT22;30457;53.590;9.922;2024-01-16T06:55:50;3.80;65.00
44729;DHT22;30457;53.590;9.922;2024-01-16T07:00:16;3.80;65.10
44729;DHT22;30457;53.590;9.922;2024-01-16T07:04:41;3.80;65.20
44729;DHT22;30457;53.590;9.922;2024-01-16T07:09:07;3.80;65.20
44729;DHT22;30457;53.590;9.922;2024-01-16T07:13:35;3.80;65.20
44729;DHT22;30457;53.590;9.922;2024-01-16T07:18:01;3.90;65.10
44729;DHT22;30457;53.590;9.922;2024-01-16T07:22:27;3.90;64.90
44729;DHT22;30457;53.590;9.922;2024-01-16T07:26:53;3.90;65.00
44729;DHT22;30457;53.590;9.922;2024-01-16T07:31:19;3.90;65.00
44729;DHT22;30457;53.590;9.922;2024-01-16T07:35:45;3.90;65.10
44729;DHT22;30457;53.590;9.922;2024-01-16T07:40:13;3.90;65.30
44729;DHT22;30457;53.590;9.922;2024-01-16T07:44:39;3.90;65.40
44729;DHT22;30457;53.590;9.922;2024-01-16T07:49:04;3.90;65.40
44729;DHT22;30457;53.590;9.922;2024-01-16T07:53:31;3.90;65.40
44729;DHT22;30457;53.590;9.922;2024-01-16T07:57:57;3.90;65.40
44729;DHT22;30457;53.590;9.922;2024-01-16T08:02:26;3.90;65.30
44729;DHT22;30457;53.590;9.922;2024-01-16T08:06:52;3.90;65.40
44729;DHT22;30457;53.590;9.922;2024-01-16T08:11:19;4.00;65.60
44729;DHT22;30457;53.590;9.922;2024-01-16T08:15:44;4.00;65.60
44729;DHT22;30457;53.590;9.922;2024-01-16T08:20:11;4.00;65.60
44729;DHT22;30457;53.590;9.922;2024-01-16T08:24:38;4.00;65.50
44729;DHT22;30457;53.590;9.922;2024-01-16T08:29:03;4.00;65.40
44729;DHT22;30457;53.590;9.922;2024-01-16T08:33:30;4.10;65.60
44729;DHT22;30457;53.590;9.922;2024-01-16T08:37:56;4.10;65.50
44729;DHT22;30457;53.590;9.922;2024-01-16T08:42:22;4.10;65.60
44729;DHT22;30457;53.590;9.922;2024-01-16T08:46:50;4.10;65.50
44729;DHT22;30457;53.590;9.922;2024-01-16T08:51:16;4.20;65.70
44729;DHT22;30457;53.590;9.922;2024-01-16T08:55:41;4.20;65.80
44729;DHT22;30457;53.590;9.922;2024-01-16T09:00:08;4.20;65.70
44729;DHT22;30457;53.590;9.922;2024-01-16T09:04:36;4.20;65.60
44729;DHT22;30457;53.590;9.922;2024-01-16T09:09:03;4.30;65.50
44729;DHT22;30457;53.590;9.922;2024-01-16T09:13:31;4.30;65.40
44729;DHT22;30457;53.590;9.922;2024-01-16T09:17:57;4.30;65.30
44729;DHT22;30457;53.590;9.922;2024-01-16T09:22:22;4.40;65.40
44729;DHT22;30457;53.590;9.922;2024-01-16T09:26:48;4.30;65.40
44729;DHT22;30457;53.590;9.922;2024-01-16T09:31:15;4.40;65.30
44729;DHT22;30457;53.590;9.922;2024-01-16T09:35:40;4.50;65.20
44729;DHT22;30457;53.590;9.922;2024-01-16T09:40:07;4.50;65.20
44729;DHT22;30457;53.590;9.922;2024-01-16T09:44:32;4.50;65.00
44729;DHT22;30457;53.590;9.922;2024-01-16T09:49:00;4.60;65.00
44729;DHT22;30457;53.590;9.922;2024-01-16T09:53:27;4.60;65.00
44729;DHT22;30457;53.590;9.922;2024-01-16T09:57:53;4.60;64.90
44729;DHT22;30457;53.590;9.922;2024-01-16T10:02:19;4.70;65.10
44729;DHT22;30457;53.590;9.922;2024-01-16T10:06:46;4.70;65.30
44729;DHT22;30457;53.590;9.922;2024-01-16T10:11:13;4.80;65.30
44729;DHT22;30457;53.590;9.922;2024-01-16T10:15:39;4.90;65.20
44729;DHT22;30457;53.590;9.922;2024-01-16T10:20:06;4.90;65.00
44729;DHT22;30457;53.590;9.922;2024-01-16T10:24:32;5.00;64.90
44729;DHT22;30457;53.590;9.922;2024-01-16T10:29:03;5.10;64.80
44729;DHT22;30457;53.590;9.922;2024-01-16T10:33:30;5.20;64.60
44729;DHT22;30457;53.590;9.922;2024-01-16T10:37:56;5.20;64.40
44729;DHT22;30457;53.590;9.922;2024-01-16T10:42:21;5.30;64.40
44729;DHT22;30457;53.590;9.922;2024-01-16T10:46:48;5.30;64.60
44729;DHT22;30457;53.590;9.922;2024-01-16T10:51:17;5.40;64.60
44729;DHT22;30457;53.590;9.922;2024-01-16T10:55:50;5.50;64.40
44729;DHT22;30457;53.590;9.922;2024-01-16T11:00:20;5.50;64.20
44729;DHT22;30457;53.590;9.922;2024-01-16T11:04:48;5.60;63.90
44729;DHT22;30457;53.590;9.922;2024-01-16T11:09:15;5.60;63.50
44729;DHT22;30457;53.590;9.922;2024-01-16T11:13:41;5.60;63.90
44729;DHT22;30457;53.590;9.922;2024-01-16T11:18:09;5.70;64.20
44729;DHT22;30457;53.590;9.922;2024-01-16T11:22:40;5.70;64.30
44729;DHT22;30457;53.590;9.922;2024-01-16T11:27:21;5.80;64.10
44729;DHT22;30457;53.590;9.922;2024-01-16T11:31:47;5.90;64.00
44729;DHT22;30457;53.590;9.922;2024-01-16T11:41:10;6.00;63.20
44729;DHT22;30457;53.590;9.922;2024-01-16T11:50:12;6.10;64.20
44729;DHT22;30457;53.590;9.922;2024-01-16T11:54:38;6.10;63.00
44729;DHT22;30457;53.590;9.922;2024-01-16T12:04:16;6.10;62.00
44729;DHT22;30457;53.590;9.922;2024-01-16T12:08:45;6.00;62.00
44729;DHT22;30457;53.590;9.922;2024-01-16T12:13:12;6.00;62.60
44729;DHT22;30457;53.590;9.922;2024-01-16T12:17:37;6.00;62.70
44729;DHT22;30457;53.590;9.922;2024-01-16T12:22:04;6.00;62.70
44729;DHT22;30457;53.590;9.922;2024-01-16T12:26:30;6.00;62.40
44729;DHT22;30457;53.590;9.922;2024-01-16T12:30:56;6.00;62.20
44729;DHT22;30457;53.590;9.922;2024-01-16T12:35:22;6.00;62.50
44729;DHT22;30457;53.590;9.922;2024-01-16T12:39:47;6.00;62.70
44729;DHT22;30457;53.590;9.922;2024-01-16T12:44:13;6.00;62.70
44729;DHT22;30457;53.590;9.922;2024-01-16T12:48:39;6.10;62.90
44729;DHT22;30457;53.590;9.922;2024-01-16T12:53:09;6.10;62.50
44729;DHT22;30457;53.590;9.922;2024-01-16T12:57:35;6.10;62.20
44729;DHT22;30457;53.590;9.922;2024-01-16T13:02:02;6.10;62.30
44729;DHT22;30457;53.590;9.922;2024-01-16T13:06:28;6.10;62.20
44729;DHT22;30457;53.590;9.922;2024-01-16T13:11:07;6.10;62.10
44729;DHT22;30457;53.590;9.922;2024-01-16T13:15:34;6.10;61.90
44729;DHT22;30457;53.590;9.922;2024-01-16T13:19:59;6.10;62.20
44729;DHT22;30457;53.590;9.922;2024-01-16T13:24:25;6.10;62.40
44729;DHT22;30457;53.590;9.922;2024-01-16T13:28:51;6.10;62.30
44729;DHT22;30457;53.590;9.922;2024-01-16T13:33:16;6.10;62.40
44729;DHT22;30457;53.590;9.922;2024-01-16T13:37:42;6.00;62.10
44729;DHT22;30457;53.590;9.922;2024-01-16T13:42:08;6.00;61.90
44729;DHT22;30457;53.590;9.922;2024-01-16T13:46:33;6.00;62.10
44729;DHT22;30457;53.590;9.922;2024-01-16T13:50:59;6.00;62.30
44729;DHT22;30457;53.590;9.922;2024-01-16T13:55:24;5.90;62.20
44729;DHT22;30457;53.590;9.922;2024-01-16T13:59:50;5.90;62.20
44729;DHT22;30457;53.590;9.922;2024-01-16T14:04:16;5.80;62.20
44729;DHT22;30457;53.590;9.922;2024-01-16T14:08:42;5.80;62.30
44729;DHT22;30457;53.590;9.922;2024-01-16T14:13:07;5.70;62.30
44729;DHT22;30457;53.590;9.922;2024-01-16T14:17:33;5.70;62.40
44729;DHT22;30457;53.590;9.922;2024-01-16T14:21:59;5.70;62.70
44729;DHT22;30457;53.590;9.922;2024-01-16T14:26:25;5.60;62.70
44729;DHT22;30457;53.590;9.922;2024-01-16T14:30:51;5.60;62.60
44729;DHT22;30457;53.590;9.922;2024-01-16T14:35:16;5.60;62.70
44729;DHT22;30457;53.590;9.922;2024-01-16T14:39:42;5.60;63.70
44729;DHT22;30457;53.590;9.922;2024-01-16T14:44:09;5.60;62.70
44729;DHT22;30457;53.590;9.922;2024-01-16T14:48:35;5.60;63.30
44729;DHT22;30457;53.590;9.922;2024-01-16T14:53:00;5.60;62.70
44729;DHT22;30457;53.590;9.922;2024-01-16T14:57:28;5.60;62.80
44729;DHT22;30457;53.590;9.922;2024-01-16T15:01:56;5.60;62.80
44729;DHT22;30457;53.590;9.922;2024-01-16T15:06:21;5.60;62.60
44729;DHT22;30457;53.590;9.922;2024-01-16T15:10:47;5.60;62.60
44729;DHT22;30457;53.590;9.922;2024-01-16T15:15:14;5.60;62.70
44729;DHT22;30457;53.590;9.922;2024-01-16T15:19:40;5.50;62.50
44729;DHT22;30457;53.590;9.922;2024-01-16T15:24:05;5.50;62.60
44729;DHT22;30457;53.590;9.922;2024-01-16T15:28:32;5.50;62.60
44729;DHT22;30457;53.590;9.922;2024-01-16T15:32:59;5.50;62.80
44729;DHT22;30457;53.590;9.922;2024-01-16T15:37:24;5.50;62.70
44729;DHT22;30457;53.590;9.922;2024-01-16T15:41:50;5.60;62.70
44729;DHT22;30457;53.590;9.922;2024-01-16T15:46:18;5.50;62.70
44729;DHT22;30457;53.590;9.922;2024-01-16T15:50:44;5.60;62.60
44729;DHT22;30457;53.590;9.922;2024-01-16T15:55:10;5.50;62.60
44729;DHT22;30457;53.590;9.922;2024-01-16T15:59:36;5.50;62.60
44729;DHT22;30457;53.590;9.922;2024-01-16T16:04:01;5.50;62.70
44729;DHT22;30457;53.590;9.922;2024-01-16T16:08:27;5.60;62.80
44729;DHT22;30457;53.590;9.922;2024-01-16T16:12:52;5.50;62.80
44729;DHT22;30457;53.590;9.922;2024-01-16T16:17:18;5.50;62.90
44729;DHT22;30457;53.590;9.922;2024-01-16T16:21:44;5.50;63.00
44729;DHT22;30457;53.590;9.922;2024-01-16T16:26:10;5.50;63.00
44729;DHT22;30457;53.590;9.922;2024-01-16T16:30:36;5.60;63.10
44729;DHT22;30457;53.590;9.922;2024-01-16T16:35:02;5.50;63.10
44729;DHT22;30457;53.590;9.922;2024-01-16T16:39:27;5.50;63.10
44729;DHT22;30457;53.590;9.922;2024-01-16T16:43:53;5.50;63.10
44729;DHT22;30457;53.590;9.922;2024-01-16T16:48:19;5.50;63.10
44729;DHT22;30457;53.590;9.922;2024-01-16T16:52:44;5.50;63.10
44729;DHT22;30457;53.590;9.922;2024-01-16T16:57:10;5.50;63.20
44729;DHT22;30457;53.590;9.922;2024-01-16T17:01:36;5.40;63.30
44729;DHT22;30457;53.590;9.922;2024-01-16T17:06:05;5.50;63.20
44729;DHT22;30457;53.590;9.922;2024-01-16T17:10:30;5.40;63.10
44729;DHT22;30457;53.590;9.922;2024-01-16T17:14:56;5.40;63.30
44729;DHT22;30457;53.590;9.922;2024-01-16T17:19:23;5.40;63.30
44729;DHT22;30457;53.590;9.922;2024-01-16T17:23:48;5.40;63.40
44729;DHT22;30457;53.590;9.922;2024-01-16T17:28:14;5.40;63.50
44729;DHT22;30457;53.590;9.922;2024-01-16T17:32:40;5.40;64.30
44729;DHT22;30457;53.590;9.922;2024-01-16T17:37:06;5.40;63.60
44729;DHT22;30457;53.590;9.922;2024-01-16T17:41:36;5.40;63.50
44729;DHT22;30457;53.590;9.922;2024-01-16T17:46:01;5.30;63.50
44729;DHT22;30457;53.590;9.922;2024-01-16T17:50:29;5.30;63.60
44729;DHT22;30457;53.590;9.922;2024-01-16T17:54:55;5.30;63.60
44729;DHT22;30457;53.590;9.922;2024-01-16T17:59:21;5.30;63.50
44729;DHT22;30457;53.590;9.922;2024-01-16T18:03:48;5.20;63.50
44729;DHT22;30457;53.590;9.922;2024-01-16T18:08:14;5.20;63.60
44729;DHT22;30457;53.590;9.922;2024-01-16T18:12:40;5.20;63.60
44729;DHT22;30457;53.590;9.922;2024-01-16T18:17:06;5.20;63.50
44729;DHT22;30457;53.590;9.922;2024-01-16T18:21:32;5.20;63.50
44729;DHT22;30457;53.590;9.922;2024-01-16T18:26:00;5.20;63.50
44729;DHT22;30457;53.590;9.922;2024-01-16T18:30:26;5.20;63.30
44729;DHT22;30457;53.590;9.922;2024-01-16T18:34:52;5.20;63.20
44729;DHT22;30457;53.590;9.922;2024-01-16T18:39:17;5.20;64.00
44729;DHT22;30457;53.590;9.922;2024-01-16T18:43:44;5.20;63.20
44729;DHT22;30457;53.590;9.922;2024-01-16T18:48:11;5.20;63.10
44729;DHT22;30457;53.590;9.922;2024-01-16T18:52:37;5.10;63.00
44729;DHT22;30457;53.590;9.922;2024-01-16T18:57:04;5.10;63.00
44729;DHT22;30457;53.590;9.922;2024-01-16T19:01:32;5.10;62.90
44729;DHT22;30457;53.590;9.922;2024-01-16T19:05:59;5.10;62.80
44729;DHT22;30457;53.590;9.922;2024-01-16T19:10:25;5.00;62.60
44729;DHT22;30457;53.590;9.922;2024-01-16T19:14:52;5.00;62.50
44729;DHT22;30457;53.590;9.922;2024-01-16T19:19:19;4.90;62.30
44729;DHT22;30457;53.590;9.922;2024-01-16T19:23:46;4.90;62.40
44729;DHT22;30457;53.590;9.922;2024-01-16T19:28:12;4.90;62.40
44729;DHT22;30457;53.590;9.922;2024-01-16T19:32:38;4.80;62.50
44729;DHT22;30457;53.590;9.922;2024-01-16T19:37:03;4.80;62.60
44729;DHT22;30457;53.590;9.922;2024-01-16T19:41:31;4.80;62.50
44729;DHT22;30457;53.590;9.922;2024-01-16T19:45:57;4.70;62.20
44729;DHT22;30457;53.590;9.922;2024-01-16T19:50:24;4.70;62.20
44729;DHT22;30457;53.590;9.922;2024-01-16T19:54:49;4.60;62.10
44729;DHT22;30457;53.590;9.922;2024-01-16T19:59:15;4.60;62.10
44729;DHT22;30457;53.590;9.922;2024-01-16T20:03:40;4.60;62.20
44729;DHT22;30457;53.590;9.922;2024-01-16T20:08:11;4.50;62.00
44729;DHT22;30457;53.590;9.922;2024-01-16T20:12:37;4.50;62.00
44729;DHT22;30457;53.590;9.922;2024-01-16T20:17:02;4.40;62.00
44729;DHT22;30457;53.590;9.922;2024-01-16T20:21:28;4.40;62.00
44729;DHT22;30457;53.590;9.922;2024-01-16T20:25:53;4.40;62.00
44729;DHT22;30457;53.590;9.922;2024-01-16T20:30:19;4.30;61.90
44729;DHT22;30457;53.590;9.922;2024-01-16T20:34:46;4.30;61.90
44729;DHT22;30457;53.590;9.922;2024-01-16T20:39:12;4.30;62.60
44729;DHT22;30457;53.590;9.922;2024-01-16T20:43:38;4.30;61.90
44729;DHT22;30457;53.590;9.922;2024-01-16T20:48:04;4.20;61.90
44729;DHT22;30457;53.590;9.922;2024-01-16T20:52:30;4.20;61.90
44729;DHT22;30457;53.590;9.922;2024-01-16T20:56:55;4.20;61.90
44729;DHT22;30457;53.590;9.922;2024-01-16T21:01:21;4.10;61.70
44729;DHT22;30457;53.590;9.922;2024-01-16T21:05:50;4.10;61.70
44729;DHT22;30457;53.590;9.922;2024-01-16T21:10:19;4.10;61.70
44729;DHT22;30457;53.590;9.922;2024-01-16T21:14:45;4.00;61.60
44729;DHT22;30457;53.590;9.922;2024-01-16T21:19:10;4.00;61.70
44729;DHT22;30457;53.590;9.922;2024-01-16T21:23:41;4.00;61.70
44729;DHT22;30457;53.590;9.922;2024-01-16T21:28:08;3.90;61.70
44729;DHT22;30457;53.590;9.922;2024-01-16T21:32:34;3.90;61.70
44729;DHT22;30457;53.590;9.922;2024-01-16T21:37:00;3.90;61.70
44729;DHT22;30457;53.590;9.922;2024-01-16T21:41:25;3.80;61.60
44729;DHT22;30457;53.590;9.922;2024-01-16T21:45:51;3.80;61.60
44729;DHT22;30457;53.590;9.922;2024-01-16T21:50:17;3.80;61.60
44729;DHT22;30457;53.590;9.922;2024-01-16T21:54:42;3.70;61.50
44729;DHT22;30457;53.590;9.922;2024-01-16T21:59:08;3.70;61.60
44729;DHT22;30457;53.590;9.922;2024-01-16T22:03:33;3.70;61.60
44729;DHT22;30457;53.590;9.922;2024-01-16T22:07:59;3.60;61.60
44729;DHT22;30457;53.590;9.922;2024-01-16T22:12:24;3.60;61.60
44729;DHT22;30457;53.590;9.922;2024-01-16T22:16:51;3.60;61.60
44729;DHT22;30457;53.590;9.922;2024-01-16T22:21:16;3.60;61.60
44729;DHT22;30457;53.590;9.922;2024-01-16T22:25:42;3.60;61.80
44729;DHT22;30457;53.590;9.922;2024-01-16T22:30:08;3.50;61.60
44729;DHT22;30457;53.590;9.922;2024-01-16T22:34:35;3.50;61.60
44729;DHT22;30457;53.590;9.922;2024-01-16T22:39:00;3.50;61.60
44729;DHT22;30457;53.590;9.922;2024-01-16T22:43:26;3.50;61.60
44729;DHT22;30457;53.590;9.922;2024-01-16T22:47:53;3.50;61.60
44729;DHT22;30457;53.590;9.922;2024-01-16T22:52:19;3.40;61.60
44729;DHT22;30457;53.590;9.922;2024-01-16T22:56:44;3.40;61.60
44729;DHT22;30457;53.590;9.922;2024-01-16T23:01:10;3.40;61.60
44729;DHT22;30457;53.590;9.922;2024-01-16T23:05:39;3.40;61.70
44729;DHT22;30457;53.590;9.922;2024-01-16T23:10:05;3.40;61.70
44729;DHT22;30457;53.590;9.922;2024-01-16T23:14:33;3.40;61.70
44729;DHT22;30457;53.590;9.922;2024-01-16T23:18:59;3.40;61.60
44729;DHT22;30457;53.590;9.922;2024-01-16T23:23:25;3.40;61.60
44729;DHT22;30457;53.590;9.922;2024-01-16T23:27:50;3.30;61.50
44729;DHT22;30457;53.590;9.922;2024-01-16T23:32:16;3.30;61.50
44729;DHT22;30457;53.590;9.922;2024-01-16T23:36:42;3.30;61.40
44729;DHT22;30457;53.590;9.922;2024-01-16T23:41:08;3.20;61.30
44729;DHT22;30457;53.590;9.922;2024-01-16T23:45:37;3.30;61.70
44729;DHT22;30457;53.590;9.922;2024-01-16T23:50:04;3.20;61.20
44729;DHT22;30457;53.590;9.922;2024-01-16T23:54:31;3.20;61.30
44729;DHT22;30457;53.590;9.922;2024-01-16T23:58:57;3.20;61.30
